createdAt,value
2023-04-25T00:00:11.537Z,7.96
2023-04-25T00:02:20.662Z,8.02
2023-04-25T00:04:26.857Z,7.98
2023-04-25T00:06:32.939Z,7.95
2023-04-25T00:08:38.348Z,7.88
2023-04-25T00:10:43.444Z,7.87
2023-04-25T00:12:48.963Z,7.85
2023-04-25T00:14:57.974Z,7.86
2023-04-25T00:17:03.722Z,7.97
2023-04-25T00:19:10.706Z,7.96
2023-04-25T00:21:16.087Z,7.88
2023-04-25T00:23:21.622Z,7.78
2023-04-25T00:25:27.247Z,7.72
2023-04-25T00:27:32.325Z,7.67
2023-04-25T00:29:37.852Z,7.69
2023-04-25T00:31:46.687Z,7.64
2023-04-25T00:33:52.349Z,7.62
2023-04-25T00:35:58.338Z,7.60
2023-04-25T00:38:03.569Z,7.53
2023-04-25T00:40:11.588Z,7.51
2023-04-25T00:42:17.509Z,7.53
2023-04-25T00:44:24.241Z,7.51
2023-04-25T00:46:29.656Z,7.50
2023-04-25T00:48:38.050Z,7.47
2023-04-25T00:50:43.757Z,7.46
2023-04-25T00:52:49.995Z,7.51
2023-04-25T00:54:55.176Z,7.57
2023-04-25T00:57:02.092Z,7.57
2023-04-25T00:59:07.683Z,7.50
2023-04-25T01:01:13.856Z,7.45
2023-04-25T01:03:21.532Z,7.37
2023-04-25T01:05:29.395Z,7.40
2023-04-25T01:07:38.065Z,7.40
2023-04-25T01:09:44.681Z,7.38
2023-04-25T01:11:49.864Z,7.39
2023-04-25T01:13:55.403Z,7.36
2023-04-25T01:16:00.604Z,7.39
2023-04-25T01:18:06.605Z,7.35
2023-04-25T01:20:15.255Z,7.32
2023-04-25T01:22:23.863Z,7.38
2023-04-25T01:24:30.534Z,7.48
2023-04-25T01:26:37.723Z,7.46
2023-04-25T01:28:44.857Z,7.47
2023-04-25T01:30:51.315Z,7.47
2023-04-25T01:32:58.902Z,7.45
2023-04-25T01:35:04.093Z,7.39
2023-04-25T01:37:09.519Z,7.42
2023-04-25T01:39:17.349Z,7.38
2023-04-25T01:41:24.659Z,7.35
2023-04-25T01:43:30.357Z,7.29
2023-04-25T01:45:37.523Z,7.24
2023-04-25T01:47:44.879Z,7.26
2023-04-25T01:49:50.089Z,7.24
2023-04-25T01:51:55.281Z,7.21
2023-04-25T01:54:01.484Z,7.13
2023-04-25T01:56:11.234Z,7.11
2023-04-25T01:58:17.677Z,7.06
2023-04-25T02:00:36.693Z,6.98
2023-04-25T02:02:43.217Z,6.98
2023-04-25T02:04:59.445Z,6.98
2023-04-25T02:07:07.431Z,6.98
2023-04-25T02:09:22.475Z,6.98
2023-04-25T02:11:34.516Z,6.95
2023-04-25T02:13:58.007Z,6.93
2023-04-25T02:16:27.425Z,6.94
2023-04-25T02:18:33.231Z,6.92
2023-04-25T02:20:38.779Z,6.94
2023-04-25T02:22:44.028Z,6.90
2023-04-25T02:24:49.991Z,6.87
2023-04-25T02:26:58.139Z,6.91
2023-04-25T02:29:03.250Z,6.86
2023-04-25T02:31:09.454Z,6.95
2023-04-25T02:33:14.648Z,6.96
2023-04-25T02:35:19.829Z,6.98
2023-04-25T02:37:25.024Z,6.94
2023-04-25T02:39:30.104Z,6.89
2023-04-25T02:41:35.208Z,6.88
2023-04-25T02:43:43.965Z,6.89
2023-04-25T02:45:49.279Z,6.90
2023-04-25T02:47:55.275Z,6.86
2023-04-25T02:50:00.425Z,6.83
2023-04-25T02:52:05.776Z,6.74
2023-04-25T02:54:11.115Z,6.77
2023-04-25T02:56:20.428Z,6.76
2023-04-25T02:58:26.000Z,6.75
2023-04-25T03:00:35.213Z,6.78
2023-04-25T03:02:40.833Z,6.82
2023-04-25T03:04:46.070Z,6.80
2023-04-25T03:06:51.574Z,6.73
2023-04-25T03:08:59.721Z,6.65
2023-04-25T03:11:05.188Z,6.66
2023-04-25T03:13:10.317Z,6.60
2023-04-25T03:15:18.214Z,6.72
2023-04-25T03:17:25.903Z,6.60
2023-04-25T03:19:31.581Z,6.55
2023-04-25T03:21:39.935Z,6.52
2023-04-25T03:23:45.022Z,6.37
2023-04-25T03:25:50.977Z,6.22
2023-04-25T03:27:56.611Z,6.08
2023-04-25T03:30:01.806Z,6.06
2023-04-25T03:32:08.894Z,6.00
2023-04-25T03:34:17.371Z,5.98
2023-04-25T03:36:23.181Z,5.92
2023-04-25T03:38:28.351Z,5.83
2023-04-25T03:40:34.455Z,5.84
2023-04-25T03:43:01.895Z,5.80
2023-04-25T03:45:08.530Z,5.68
2023-04-25T03:47:13.695Z,5.58
2023-04-25T03:49:21.385Z,5.47
2023-04-25T03:51:35.899Z,5.27
2023-04-25T03:53:41.889Z,5.20
2023-04-25T03:55:58.781Z,5.09
2023-04-25T03:58:09.339Z,4.96
2023-04-25T04:00:18.739Z,4.88
2023-04-25T04:02:23.977Z,4.84
2023-04-25T04:04:34.908Z,4.86
2023-04-25T04:06:41.170Z,4.82
2023-04-25T04:08:52.660Z,4.66
2023-04-25T04:10:58.497Z,4.63
2023-04-25T04:13:05.110Z,4.57
2023-04-25T04:15:13.809Z,4.48
2023-04-25T04:17:20.214Z,4.39
2023-04-25T04:19:25.426Z,4.36
2023-04-25T04:21:47.204Z,4.24
2023-04-25T04:26:01.192Z,4.17
2023-04-25T04:28:07.145Z,4.27
2023-04-25T04:30:30.657Z,4.37
2023-04-25T04:32:38.835Z,4.34
2023-04-25T04:34:45.729Z,4.39
2023-04-25T04:36:56.671Z,4.33
2023-04-25T04:39:02.835Z,4.39
2023-04-25T04:41:15.021Z,4.36
2023-04-25T04:43:29.700Z,4.24
2023-04-25T04:45:46.851Z,4.18
2023-04-25T04:48:15.672Z,4.21
2023-04-25T04:50:38.094Z,4.40
2023-04-25T04:53:04.418Z,4.64
2023-04-25T04:55:22.187Z,4.77
2023-04-25T04:57:41.739Z,4.89
2023-04-25T05:00:19.485Z,5.07
2023-04-25T05:02:42.299Z,5.17
2023-04-25T05:05:11.471Z,5.36
2023-04-25T05:07:32.560Z,5.37
2023-04-25T05:10:12.478Z,5.51
2023-04-25T05:12:37.198Z,5.60
2023-04-25T05:15:17.112Z,5.63
2023-04-25T05:17:41.498Z,5.68
2023-04-25T05:20:25.333Z,5.80
2023-04-25T05:22:53.583Z,5.74
2023-04-25T05:25:36.723Z,5.78
2023-04-25T05:28:02.467Z,5.85
2023-04-25T05:30:19.540Z,5.77
2023-04-25T05:32:51.955Z,5.80
2023-04-25T05:34:57.659Z,5.90
2023-04-25T05:37:06.473Z,5.90
2023-04-25T05:39:15.859Z,5.91
2023-04-25T05:41:44.360Z,6.09
2023-04-25T05:44:12.743Z,6.22
2023-04-25T05:46:25.794Z,6.24
2023-04-25T05:48:47.452Z,6.34
2023-04-25T05:51:19.602Z,6.27
2023-04-25T05:53:56.900Z,6.27
2023-04-25T05:56:02.036Z,6.26
2023-04-25T05:58:10.624Z,6.39
2023-04-25T06:00:20.021Z,6.41
2023-04-25T06:02:27.922Z,6.54
2023-04-25T06:04:34.111Z,6.62
2023-04-25T06:06:40.253Z,6.67
2023-04-25T06:08:46.435Z,6.81
2023-04-25T06:10:51.742Z,7.00
2023-04-25T06:12:58.061Z,7.07
2023-04-25T06:15:20.170Z,7.12
2023-04-25T06:17:34.023Z,7.24
2023-04-25T06:19:41.024Z,7.28
2023-04-25T06:21:48.661Z,7.36
2023-04-25T06:23:54.079Z,7.43
2023-04-25T06:26:05.839Z,7.57
2023-04-25T06:28:12.625Z,7.75
2023-04-25T06:30:24.644Z,7.78
2023-04-25T06:32:31.909Z,7.79
2023-04-25T06:34:39.042Z,7.71
2023-04-25T06:36:47.283Z,7.76
2023-04-25T06:38:54.657Z,7.78
2023-04-25T06:41:00.130Z,7.80
2023-04-25T06:43:09.952Z,8.04
2023-04-25T06:45:36.882Z,8.03
2023-04-25T06:47:42.713Z,8.17
2023-04-25T06:49:47.907Z,8.18
2023-04-25T06:51:53.651Z,8.29
2023-04-25T06:53:58.967Z,8.27
2023-04-25T06:56:14.975Z,8.29
2023-04-25T06:58:28.938Z,8.30
2023-04-25T07:01:02.243Z,8.40
2023-04-25T07:03:07.960Z,8.27
2023-04-25T07:05:13.592Z,8.26
2023-04-25T07:07:18.711Z,8.25
2023-04-25T07:09:31.338Z,8.43
2023-04-25T07:11:37.994Z,8.48
2023-04-25T07:13:43.404Z,8.44
2023-04-25T07:15:49.330Z,8.54
2023-04-25T07:17:59.052Z,8.70
2023-04-25T07:20:05.154Z,8.90
2023-04-25T07:22:10.445Z,9.00
2023-04-25T07:24:18.516Z,9.14
2023-04-25T07:26:26.344Z,9.15
2023-04-25T07:28:53.869Z,9.11
2023-04-25T07:30:59.319Z,8.88
2023-04-25T07:33:07.304Z,8.97
2023-04-25T07:35:13.210Z,9.01
2023-04-25T07:37:19.936Z,9.05
2023-04-25T07:39:41.671Z,8.96
2023-04-25T07:41:46.819Z,9.16
2023-04-25T07:43:57.649Z,9.22
2023-04-25T07:46:04.082Z,9.17
2023-04-25T07:48:14.414Z,9.27
2023-04-25T07:50:19.935Z,9.13
2023-04-25T07:52:25.684Z,9.06
2023-04-25T07:54:39.298Z,8.93
2023-04-25T07:56:53.691Z,9.19
2023-04-25T07:59:04.829Z,9.56
2023-04-25T08:01:09.939Z,9.44
2023-04-25T08:03:28.606Z,9.42
2023-04-25T08:05:35.052Z,9.37
2023-04-25T08:07:44.688Z,9.27
2023-04-25T08:09:50.456Z,9.66
2023-04-25T08:12:03.063Z,9.83
2023-04-25T08:14:10.959Z,9.95
2023-04-25T08:16:17.740Z,10.00
2023-04-25T08:18:22.935Z,10.03
2023-04-25T08:20:31.797Z,10.06
2023-04-25T08:22:39.400Z,10.19
2023-04-25T08:25:05.262Z,10.37
2023-04-25T08:27:12.274Z,10.50
2023-04-25T08:29:17.475Z,10.62
2023-04-25T08:31:23.605Z,10.42
2023-04-25T08:33:35.807Z,10.15
2023-04-25T08:35:54.111Z,10.16
2023-04-25T08:37:59.381Z,10.21
2023-04-25T08:40:08.236Z,10.61
2023-04-25T08:42:36.825Z,10.96
2023-04-25T08:44:42.882Z,10.91
2023-04-25T08:46:52.109Z,11.01
2023-04-25T08:49:06.595Z,10.53
2023-04-25T08:51:19.959Z,10.67
2023-04-25T08:53:31.664Z,10.79
2023-04-25T08:55:41.388Z,11.10
2023-04-25T08:57:48.516Z,10.90
2023-04-25T08:59:56.740Z,10.64
2023-04-25T09:02:02.980Z,10.60
2023-04-25T09:04:10.529Z,10.57
2023-04-25T09:06:18.944Z,10.49
2023-04-25T09:08:24.196Z,10.10
2023-04-25T09:10:29.365Z,10.04
2023-04-25T09:12:36.684Z,9.81
2023-04-25T09:14:43.871Z,9.79
2023-04-25T09:17:09.484Z,9.69
2023-04-25T09:19:38.984Z,9.65
2023-04-25T09:21:58.903Z,9.55
2023-04-25T09:24:04.460Z,9.69
2023-04-25T09:26:11.948Z,9.55
2023-04-25T09:28:17.412Z,9.59
2023-04-25T09:30:32.186Z,9.52
2023-04-25T09:33:01.719Z,9.62
2023-04-25T09:35:10.611Z,9.88
2023-04-25T09:37:23.123Z,10.14
2023-04-25T09:39:50.116Z,10.67
2023-04-25T09:41:58.610Z,11.39
2023-04-25T09:44:04.853Z,11.95
2023-04-25T09:46:16.695Z,12.41
2023-04-25T09:48:28.747Z,12.95
2023-04-25T09:50:36.520Z,13.36
2023-04-25T09:52:49.837Z,13.16
2023-04-25T09:54:59.501Z,12.92
2023-04-25T09:57:16.434Z,12.70
2023-04-25T09:59:24.543Z,12.62
2023-04-25T10:01:31.401Z,12.77
2023-04-25T10:03:50.856Z,12.63
2023-04-25T10:06:16.701Z,12.40
2023-04-25T10:08:26.141Z,12.48
2023-04-25T10:10:34.030Z,12.04
2023-04-25T10:12:41.151Z,11.62
2023-04-25T10:14:47.006Z,11.28
2023-04-25T10:16:54.745Z,11.16
2023-04-25T10:19:00.388Z,10.77
2023-04-25T10:21:08.059Z,10.68
2023-04-25T10:23:18.167Z,10.40
2023-04-25T10:25:27.036Z,10.23
2023-04-25T10:27:32.731Z,10.14
2023-04-25T10:29:39.341Z,10.00
2023-04-25T10:31:50.411Z,9.63
2023-04-25T10:33:55.507Z,9.60
2023-04-25T10:36:02.513Z,9.37
2023-04-25T10:38:09.676Z,9.27
2023-04-25T10:40:16.924Z,9.31
2023-04-25T10:42:25.020Z,9.41
2023-04-25T10:44:32.611Z,9.51
2023-04-25T10:46:38.885Z,9.55
2023-04-25T10:48:51.891Z,10.06
2023-04-25T10:51:12.072Z,10.72
2023-04-25T10:53:19.091Z,10.95
2023-04-25T10:55:24.653Z,11.28
2023-04-25T10:57:44.617Z,11.47
2023-04-25T10:59:52.510Z,11.70
2023-04-25T11:01:58.173Z,11.87
2023-04-25T11:04:03.716Z,11.75
2023-04-25T11:06:14.070Z,11.75
2023-04-25T11:08:34.670Z,11.77
2023-04-25T11:10:39.744Z,11.53
2023-04-25T11:12:48.518Z,11.71
2023-04-25T11:14:53.731Z,11.95
2023-04-25T11:17:00.866Z,12.58
2023-04-25T11:19:06.896Z,13.01
2023-04-25T11:21:12.159Z,13.18
2023-04-25T11:23:17.283Z,13.70
2023-04-25T11:25:22.382Z,13.45
2023-04-25T11:27:29.083Z,13.33
2023-04-25T11:29:38.743Z,13.14
2023-04-25T11:31:47.796Z,13.29
2023-04-25T11:33:53.488Z,13.75
2023-04-25T11:35:59.640Z,13.41
2023-04-25T11:38:05.759Z,13.32
2023-04-25T11:40:13.781Z,13.11
2023-04-25T11:42:19.318Z,12.75
2023-04-25T11:44:25.451Z,12.24
2023-04-25T11:46:33.489Z,11.84
2023-04-25T11:48:42.314Z,11.77
2023-04-25T11:50:47.657Z,12.03
2023-04-25T11:52:53.188Z,12.23
2023-04-25T11:54:59.979Z,12.19
2023-04-25T11:57:05.162Z,12.51
2023-04-25T11:59:10.989Z,12.44
2023-04-25T12:01:16.430Z,12.42
2023-04-25T12:03:27.530Z,12.98
2023-04-25T12:05:35.503Z,13.35
2023-04-25T12:07:42.298Z,13.36
2023-04-25T12:09:47.372Z,13.00
2023-04-25T12:11:57.757Z,12.36
2023-04-25T12:14:07.886Z,12.04
2023-04-25T12:16:13.028Z,11.73
2023-04-25T12:18:18.332Z,11.32
2023-04-25T12:20:29.168Z,11.45
2023-04-25T12:22:34.652Z,11.61
2023-04-25T12:24:39.802Z,12.45
2023-04-25T12:26:53.580Z,13.52
2023-04-25T12:28:58.647Z,14.00
2023-04-25T12:31:05.913Z,14.83
2023-04-25T12:33:11.505Z,15.15
2023-04-25T12:35:17.345Z,15.02
2023-04-25T12:37:25.051Z,14.58
2023-04-25T12:39:30.366Z,14.33
2023-04-25T12:41:35.533Z,13.70
2023-04-25T12:43:40.660Z,13.21
2023-04-25T12:45:46.165Z,13.05
2023-04-25T12:47:51.470Z,12.66
2023-04-25T12:49:57.168Z,12.50
2023-04-25T12:52:02.835Z,12.15
2023-04-25T12:54:11.169Z,11.68
2023-04-25T12:56:16.637Z,11.66
2023-04-25T12:58:23.100Z,11.31
2023-04-25T13:00:28.584Z,11.01
2023-04-25T13:02:33.755Z,10.99
2023-04-25T13:04:39.372Z,10.75
2023-04-25T13:06:44.815Z,10.59
2023-04-25T13:08:50.126Z,10.71
2023-04-25T13:10:58.122Z,10.62
2023-04-25T13:13:03.702Z,10.49
2023-04-25T13:15:12.427Z,10.63
2023-04-25T13:17:17.483Z,10.78
2023-04-25T13:19:22.580Z,10.81
2023-04-25T13:21:28.127Z,10.95
2023-04-25T13:23:33.769Z,11.16
2023-04-25T13:25:39.121Z,11.13
2023-04-25T13:27:47.534Z,11.31
2023-04-25T13:29:52.619Z,11.55
2023-04-25T13:31:57.702Z,11.92
2023-04-25T13:34:02.780Z,11.70
2023-04-25T13:36:08.423Z,11.50
2023-04-25T13:38:13.448Z,11.60
2023-04-25T13:40:18.882Z,11.58
2023-04-25T13:42:23.903Z,11.82
2023-04-25T13:44:32.117Z,12.12
2023-04-25T13:48:49.781Z,12.20
2023-04-25T13:50:55.070Z,12.66
2023-04-25T13:53:00.119Z,12.84
2023-04-25T13:55:07.966Z,12.87
2023-04-25T13:57:14.072Z,12.99
2023-04-25T13:59:19.128Z,13.08
2023-04-25T14:01:28.085Z,13.19
2023-04-25T14:03:33.807Z,13.19
2023-04-25T14:05:41.427Z,13.13
2023-04-25T14:07:47.019Z,12.74
2023-04-25T14:09:52.078Z,12.48
2023-04-25T14:11:58.068Z,12.46
2023-04-25T14:14:03.128Z,12.26
2023-04-25T14:16:09.054Z,11.92
2023-04-25T14:18:16.707Z,11.76
2023-04-25T14:20:24.989Z,11.51
2023-04-25T14:22:30.033Z,11.35
2023-04-25T14:24:35.069Z,11.24
2023-04-25T14:26:40.470Z,11.02
2023-04-25T14:28:45.678Z,10.88
2023-04-25T14:30:51.062Z,10.65
2023-04-25T14:32:56.401Z,10.59
2023-04-25T14:35:04.071Z,10.45
2023-04-25T14:37:09.265Z,10.31
2023-04-25T14:39:15.242Z,10.23
2023-04-25T14:41:20.552Z,10.15
2023-04-25T14:43:25.685Z,10.78
2023-04-25T14:45:30.777Z,11.33
2023-04-25T14:47:35.918Z,11.12
2023-04-25T14:49:40.969Z,10.88
2023-04-25T14:51:50.211Z,10.76
2023-04-25T14:53:57.385Z,10.58
2023-04-25T14:56:02.681Z,10.44
2023-04-25T14:58:08.273Z,10.44
2023-04-25T15:00:17.364Z,10.31
2023-04-25T15:02:22.619Z,10.12
2023-04-25T15:04:27.968Z,10.02
2023-04-25T15:06:33.485Z,9.95
2023-04-25T15:08:41.149Z,9.92
2023-04-25T15:10:46.454Z,9.87
2023-04-25T15:12:51.793Z,9.86
2023-04-25T15:14:57.320Z,9.88
2023-04-25T15:17:02.556Z,9.98
2023-04-25T15:19:08.417Z,10.16
2023-04-25T15:21:13.614Z,10.53
2023-04-25T15:23:19.021Z,11.00
2023-04-25T15:25:27.322Z,11.25
2023-04-25T15:27:32.369Z,11.22
2023-04-25T15:29:37.417Z,11.19
2023-04-25T15:31:42.509Z,11.16
2023-04-25T15:33:48.551Z,11.05
2023-04-25T15:35:53.689Z,11.21
2023-04-25T15:37:58.747Z,10.99
2023-04-25T15:40:10.061Z,10.84
2023-04-25T15:42:17.722Z,10.71
2023-04-25T15:44:23.026Z,10.49
2023-04-25T15:46:28.210Z,10.53
2023-04-25T15:48:33.298Z,10.61
2023-04-25T15:50:39.163Z,10.56
2023-04-25T15:52:44.775Z,10.68
2023-04-25T15:54:49.803Z,10.76
2023-04-25T15:56:54.838Z,10.62
2023-04-25T15:59:02.581Z,10.55
2023-04-25T16:01:07.957Z,10.62
2023-04-25T16:03:13.281Z,10.55
2023-04-25T16:05:19.510Z,10.74
2023-04-25T16:07:24.665Z,10.61
2023-04-25T16:09:29.773Z,10.78
2023-04-25T16:11:34.812Z,10.80
2023-04-25T16:13:39.854Z,11.01
2023-04-25T16:15:47.751Z,11.21
2023-04-25T16:17:52.903Z,12.99
2023-04-25T16:19:59.542Z,14.09
2023-04-25T16:22:04.909Z,13.93
2023-04-25T16:24:11.451Z,13.22
2023-04-25T16:26:16.666Z,12.47
2023-04-25T16:28:21.796Z,11.90
2023-04-25T16:30:27.185Z,11.64
2023-04-25T16:32:34.953Z,11.10
2023-04-25T16:34:40.164Z,10.78
2023-04-25T16:36:45.204Z,10.58
2023-04-25T16:38:50.396Z,10.24
2023-04-25T16:40:56.139Z,9.93
2023-04-25T16:43:02.100Z,9.82
2023-04-25T16:45:09.090Z,9.73
2023-04-25T16:47:17.977Z,9.61
2023-04-25T16:49:27.181Z,9.75
2023-04-25T16:51:32.683Z,9.86
2023-04-25T16:53:38.079Z,10.07
2023-04-25T16:55:44.036Z,10.31
2023-04-25T16:57:49.076Z,10.36
2023-04-25T16:59:54.748Z,10.59
2023-04-25T17:01:59.906Z,10.65
2023-04-25T17:04:05.140Z,10.67
2023-04-25T17:06:13.481Z,10.38
2023-04-25T17:08:18.882Z,10.51
2023-04-25T17:10:23.965Z,10.96
2023-04-25T17:12:29.011Z,11.52
2023-04-25T17:14:36.156Z,11.69
2023-04-25T17:16:42.272Z,11.68
2023-04-25T17:18:47.481Z,11.40
2023-04-25T17:20:52.533Z,11.25
2023-04-25T17:23:00.167Z,10.66
2023-04-25T17:25:05.478Z,10.44
2023-04-25T17:27:10.595Z,10.19
2023-04-25T17:29:15.604Z,10.19
2023-04-25T17:31:20.844Z,9.97
2023-04-25T17:33:27.289Z,9.78
2023-04-25T17:35:34.251Z,9.83
2023-04-25T17:37:40.931Z,9.94
2023-04-25T17:39:48.726Z,10.12
2023-04-25T17:41:53.808Z,10.28
2023-04-25T17:43:58.819Z,10.26
2023-04-25T17:46:03.878Z,10.24
2023-04-25T17:48:09.075Z,10.15
2023-04-25T17:50:16.809Z,9.95
2023-04-25T17:52:22.140Z,9.77
2023-04-25T17:54:27.760Z,9.51
2023-04-25T17:56:39.155Z,9.22
2023-04-25T17:58:44.375Z,9.04
2023-04-25T18:00:49.432Z,9.05
2023-04-25T18:02:55.121Z,8.91
2023-04-25T18:05:00.373Z,8.68
2023-04-25T18:07:07.810Z,8.58
2023-04-25T18:09:18.646Z,8.27
2023-04-25T18:11:24.375Z,8.10
2023-04-25T18:13:32.223Z,7.96
2023-04-25T18:15:38.236Z,7.75
2023-04-25T18:17:43.407Z,7.58
2023-04-25T18:19:48.993Z,7.48
2023-04-25T18:21:57.136Z,7.27
2023-04-25T18:24:02.224Z,7.12
2023-04-25T18:26:08.926Z,6.95
2023-04-25T18:28:14.017Z,6.74
2023-04-25T18:30:21.691Z,6.57
2023-04-25T18:32:28.790Z,6.41
2023-04-25T18:34:34.151Z,6.30
2023-04-25T18:36:40.191Z,6.12
2023-04-25T18:38:50.329Z,6.05
2023-04-25T18:41:00.062Z,5.93
2023-04-25T18:43:08.326Z,5.82
2023-04-25T18:45:14.708Z,5.81
2023-04-25T18:47:22.313Z,5.80
2023-04-25T18:49:27.491Z,5.82
2023-04-25T18:51:33.847Z,5.83
2023-04-25T18:53:39.215Z,5.84
2023-04-25T18:55:44.254Z,5.88
2023-04-25T18:57:49.286Z,5.89
2023-04-25T18:59:55.043Z,5.94
2023-04-25T19:02:02.783Z,5.93
2023-04-25T19:04:10.719Z,5.94
2023-04-25T19:06:15.840Z,5.90
2023-04-25T19:08:20.936Z,5.84
2023-04-25T19:10:26.646Z,5.84
2023-04-25T19:12:33.408Z,5.91
2023-04-25T19:14:38.460Z,5.97
2023-04-25T19:16:43.581Z,6.12
2023-04-25T19:18:52.153Z,6.13
2023-04-25T19:21:00.532Z,6.13
2023-04-25T19:23:05.625Z,6.09
2023-04-25T19:25:11.849Z,6.09
2023-04-25T19:27:17.216Z,6.07
2023-04-25T19:29:22.239Z,6.10
2023-04-25T19:31:27.672Z,6.05
2023-04-25T19:33:33.182Z,5.97
2023-04-25T19:35:38.268Z,5.93
2023-04-25T19:37:47.073Z,5.86
2023-04-25T19:39:52.106Z,5.81
2023-04-25T19:41:58.392Z,5.71
2023-04-25T19:44:07.280Z,5.60
2023-04-25T19:46:12.725Z,5.57
2023-04-25T19:48:18.965Z,5.55
2023-04-25T19:50:24.436Z,5.49
2023-04-25T19:52:31.974Z,5.54
2023-04-25T19:54:39.638Z,5.51
2023-04-25T19:56:45.995Z,5.57
2023-04-25T19:58:52.726Z,5.56
2023-04-25T20:00:58.793Z,5.55
2023-04-25T20:03:04.743Z,5.51
2023-04-25T20:05:12.378Z,5.44
2023-04-25T20:07:20.179Z,5.33
2023-04-25T20:09:26.356Z,5.32
2023-04-25T20:11:35.428Z,5.31
2023-04-25T20:13:41.106Z,5.20
2023-04-25T20:15:46.197Z,5.39
2023-04-25T20:17:51.469Z,5.47
2023-04-25T20:19:56.658Z,5.45
2023-04-25T20:22:01.975Z,5.52
2023-04-25T20:24:08.952Z,5.49
2023-04-25T20:26:14.240Z,5.54
2023-04-25T20:28:23.183Z,5.55
2023-04-25T20:30:28.345Z,5.68
2023-04-25T20:32:34.754Z,5.73
2023-04-25T20:34:40.097Z,5.97
2023-04-25T20:36:45.253Z,6.00
2023-04-25T20:38:50.738Z,6.01
2023-04-25T20:40:56.612Z,6.00
2023-04-25T20:43:02.464Z,5.95
2023-04-25T20:45:13.631Z,5.93
2023-04-25T20:47:19.166Z,5.93
2023-04-25T20:49:24.204Z,5.88
2023-04-25T20:51:30.407Z,5.85
2023-04-25T20:53:35.982Z,5.79
2023-04-25T20:55:41.786Z,5.85
2023-04-25T20:57:46.847Z,5.84
2023-04-25T20:59:52.857Z,5.83
2023-04-25T21:02:00.573Z,5.90
2023-04-25T21:04:06.677Z,5.86
2023-04-25T21:06:12.058Z,5.77
2023-04-25T21:08:17.648Z,5.69
2023-04-25T21:10:23.030Z,5.61
2023-04-25T21:12:28.171Z,5.54
2023-04-25T21:14:34.120Z,5.46
2023-04-25T21:16:39.253Z,5.33
2023-04-25T21:18:47.231Z,5.20
2023-04-25T21:20:52.429Z,5.05
2023-04-25T21:22:57.461Z,4.96
2023-04-25T21:25:06.177Z,4.78
2023-04-25T21:27:11.182Z,4.61
2023-04-25T21:29:16.465Z,4.44
2023-04-25T21:31:21.718Z,4.36
2023-04-25T21:33:26.750Z,4.26
2023-04-25T21:35:34.403Z,4.09
2023-04-25T21:37:39.420Z,4.02
2023-04-25T21:39:44.736Z,3.86
2023-04-25T21:41:49.831Z,3.82
2023-04-25T21:43:54.883Z,3.74
2023-04-25T21:46:21.733Z,3.73
2023-04-25T21:48:25.236Z,3.60
2023-04-25T21:50:33.790Z,3.55
2023-04-25T21:52:40.678Z,3.68
2023-04-25T21:54:47.017Z,3.59
2023-04-25T21:56:52.093Z,3.47
2023-04-25T21:58:57.416Z,3.47
2023-04-25T22:01:03.205Z,3.44
2023-04-25T22:03:09.132Z,3.34
2023-04-25T22:05:14.790Z,3.26
2023-04-25T22:07:22.375Z,3.27
2023-04-25T22:09:27.654Z,3.21
2023-04-25T22:11:32.665Z,3.04
2023-04-25T22:13:38.754Z,2.97
2023-04-25T22:15:44.176Z,3.08
2023-04-25T22:17:49.580Z,3.16
2023-04-25T22:19:54.777Z,3.27
2023-04-25T22:21:59.977Z,3.24
2023-04-25T22:24:08.439Z,3.34
2023-04-25T22:26:13.493Z,3.33
2023-04-25T22:28:18.645Z,3.32
2023-04-25T22:30:24.479Z,3.29
2023-04-25T22:32:29.550Z,3.23
2023-04-25T22:34:34.585Z,3.24
2023-04-25T22:36:39.796Z,3.22
2023-04-25T22:38:44.832Z,3.26
2023-04-25T22:40:52.503Z,3.41
2023-04-25T22:42:57.978Z,3.45
2023-04-25T22:45:03.386Z,3.42
2023-04-25T22:47:09.101Z,3.41
2023-04-25T22:49:14.699Z,3.51
2023-04-25T22:51:19.731Z,3.52
2023-04-25T22:53:24.815Z,3.53
2023-04-25T22:55:29.868Z,3.54
2023-04-25T22:57:40.344Z,3.58
2023-04-25T22:59:45.733Z,3.71
2023-04-25T23:01:51.673Z,3.68
2023-04-25T23:03:57.901Z,3.51
2023-04-25T23:06:03.233Z,3.38
2023-04-25T23:08:08.352Z,3.37
2023-04-25T23:10:14.377Z,3.25
2023-04-25T23:12:21.313Z,3.29
2023-04-25T23:14:29.234Z,3.23
2023-04-25T23:16:34.300Z,3.25
2023-04-25T23:18:40.397Z,3.29
2023-04-25T23:20:46.110Z,3.12
2023-04-25T23:22:52.100Z,3.10
2023-04-25T23:24:57.117Z,2.94
2023-04-25T23:27:03.649Z,2.75
2023-04-25T23:29:09.094Z,2.72
2023-04-25T23:31:16.735Z,2.79
2023-04-25T23:33:22.316Z,2.64
2023-04-25T23:35:27.806Z,2.61
2023-04-25T23:37:33.313Z,2.54
2023-04-25T23:41:46.107Z,2.25
2023-04-25T23:43:51.558Z,2.20
2023-04-25T23:45:57.048Z,2.07
2023-04-25T23:48:05.546Z,2.24
2023-04-25T23:50:13.490Z,2.27
2023-04-25T23:52:18.975Z,2.47
2023-04-25T23:54:24.070Z,2.51
2023-04-25T23:56:30.296Z,2.55
2023-04-25T23:58:35.480Z,2.37
